Time;durP1;ratioP1;P1;durP2;ratioP2;P2;SDS_P1;SDS_P2;PMS_P1;PMS_P2;Temp;Humidity;BMP_temperature;BMP_pressure;BME280_temperature;BME280_humidity;BME280_pressure;Samples;Min_cycle;Max_cycle;Signal;HPM_P1;HPM_P2
2023/06/20 00:01:15;;;;;;;5.55;4.63;;;;;;;;;;5054008;28;20448;-60
2023/06/20 00:03:41;;;;;;;6.97;5.05;;;;;;;;;;5053434;28;20025;-60
2023/06/20 00:06:07;;;;;;;4.95;4.40;;;;;;;;;;5054176;28;20082;-60
2023/06/20 00:08:32;;;;;;;4.72;4.22;;;;;;;;;;5053936;28;20459;-60
2023/06/20 00:10:58;;;;;;;6.05;4.97;;;;;;;;;;5053470;28;20029;-60
2023/06/20 00:13:24;;;;;;;6.03;5.13;;;;;;;;;;5053503;28;20029;-60
2023/06/20 00:15:50;;;;;;;5.65;4.82;;;;;;;;;;5053638;28;20041;-60
2023/06/20 00:18:17;;;;;;;4.68;4.07;;;;;;;;;;5053673;28;20037;-60
2023/06/20 00:20:46;;;;;;;4.93;4.38;;;;;;;;;;5053302;28;20021;-60
2023/06/20 00:23:12;;;;;;;5.35;4.82;;;;;;;;;;5053256;28;20044;-61
2023/06/20 00:25:38;;;;;;;5.82;4.40;;;;;;;;;;5053905;28;20021;-60
2023/06/20 00:28:04;;;;;;;4.35;3.78;;;;;;;;;;5053643;28;20021;-60
2023/06/20 00:30:30;;;;;;;4.03;3.63;;;;;;;;;;5053437;28;20063;-60
2023/06/20 00:32:58;;;;;;;5.80;4.00;;;;;;;;;;5052950;28;20544;-61
2023/06/20 00:35:24;;;;;;;5.78;3.33;;;;;;;;;;5053177;28;20456;-60
2023/06/20 00:37:50;;;;;;;4.15;3.55;;;;;;;;;;5053586;28;20060;-60
2023/06/20 00:40:16;;;;;;;3.83;3.35;;;;;;;;;;5053677;28;20048;-60
2023/06/20 00:42:42;;;;;;;5.13;4.00;;;;;;;;;;5053347;28;20158;-60
2023/06/20 00:45:37;;;;;;;4.18;3.58;;;;;;;;;;5053425;28;20029;-60
2023/06/20 00:48:04;;;;;;;5.20;4.53;;;;;;;;;;5048550;28;20041;-60
2023/06/20 00:50:31;;;;;;;5.13;4.47;;;;;;;;;;5053805;28;20025;-60
2023/06/20 00:52:59;;;;;;;5.13;4.45;;;;;;;;;;5053065;28;20029;-60
2023/06/20 00:55:26;;;;;;;5.75;5.10;;;;;;;;;;5056465;28;20020;-60
2023/06/20 00:57:53;;;;;;;5.65;5.00;;;;;;;;;;5057209;28;20032;-60
2023/06/20 01:00:19;;;;;;;4.88;4.35;;;;;;;;;;5057058;28;20118;-60
2023/06/20 01:02:46;;;;;;;5.38;4.88;;;;;;;;;;5057245;28;20447;-59
2023/06/20 01:05:13;;;;;;;6.80;5.93;;;;;;;;;;5056498;28;20108;-60
2023/06/20 01:07:49;;;;;;;5.68;5.13;;;;;;;;;;5056174;28;20387;-59
2023/06/20 01:10:22;;;;;;;5.82;4.55;;;;;;;;;;5056952;28;20477;-60
2023/06/20 01:12:54;;;;;;;5.25;4.30;;;;;;;;;;5057040;28;20352;-59
2023/06/20 01:15:35;;;;;;;5.30;4.50;;;;;;;;;;5056555;28;20463;-60
2023/06/20 01:18:12;;;;;;;5.55;4.32;;;;;;;;;;5056139;28;20025;-60
2023/06/20 01:20:46;;;;;;;5.65;4.85;;;;;;;;;;5056651;28;20025;-60
2023/06/20 01:23:28;;;;;;;8.20;4.97;;;;;;;;;;5056541;28;20033;-60
2023/06/20 01:25:59;;;;;;;8.02;4.95;;;;;;;;;;5056528;28;20111;-60
2023/06/20 01:28:27;;;;;;;5.70;5.15;;;;;;;;;;5056142;28;20029;-60
2023/06/20 01:31:01;;;;;;;5.10;4.50;;;;;;;;;;5056133;28;20025;-60
2023/06/20 01:33:48;;;;;;;4.80;4.13;;;;;;;;;;5056407;28;20075;-60
2023/06/20 01:36:16;;;;;;;4.70;4.22;;;;;;;;;;5056827;28;20025;-60
2023/06/20 01:38:44;;;;;;;5.95;4.18;;;;;;;;;;5055977;28;20086;-60
2023/06/20 01:41:11;;;;;;;5.50;4.25;;;;;;;;;;5054574;28;20489;-60
2023/06/20 01:43:38;;;;;;;4.95;4.43;;;;;;;;;;5055893;28;20053;-60
2023/06/20 01:46:05;;;;;;;5.90;4.97;;;;;;;;;;5056372;28;20355;-60
2023/06/20 01:48:33;;;;;;;5.38;3.95;;;;;;;;;;5055717;28;20044;-60
2023/06/20 01:50:59;;;;;;;4.63;4.15;;;;;;;;;;5055750;28;20029;-60
2023/06/20 01:53:26;;;;;;;4.97;4.45;;;;;;;;;;5055417;28;20021;-60
2023/06/20 01:55:52;;;;;;;7.68;4.15;;;;;;;;;;5055102;28;20532;-60
2023/06/20 01:58:19;;;;;;;4.85;3.63;;;;;;;;;;5055274;28;20108;-60
2023/06/20 02:00:46;;;;;;;5.53;4.88;;;;;;;;;;5055817;28;20031;-60
2023/06/20 02:03:12;;;;;;;5.13;3.47;;;;;;;;;;5055314;28;20059;-60
2023/06/20 02:05:38;;;;;;;4.63;4.05;;;;;;;;;;5055073;28;20362;-60
2023/06/20 02:08:05;;;;;;;6.28;4.15;;;;;;;;;;5055696;28;20429;-60
2023/06/20 02:10:31;;;;;;;5.38;4.65;;;;;;;;;;5055833;28;20041;-60
2023/06/20 02:12:58;;;;;;;5.50;4.40;;;;;;;;;;5055498;28;20409;-60
2023/06/20 02:15:25;;;;;;;5.32;4.38;;;;;;;;;;5055717;28;20049;-60
2023/06/20 02:17:51;;;;;;;4.53;4.13;;;;;;;;;;5055193;28;20100;-60
2023/06/20 02:20:17;;;;;;;4.22;3.83;;;;;;;;;;5055132;28;20029;-60
2023/06/20 02:22:44;;;;;;;4.40;3.88;;;;;;;;;;5054802;28;20469;-60
2023/06/20 02:25:12;;;;;;;4.85;4.40;;;;;;;;;;5055271;28;20036;-60
2023/06/20 02:27:40;;;;;;;4.35;3.58;;;;;;;;;;5055387;28;20028;-60
2023/06/20 02:30:08;;;;;;;4.50;3.83;;;;;;;;;;5054974;28;20029;-60
2023/06/20 02:32:35;;;;;;;3.55;2.97;;;;;;;;;;5054933;28;20470;-60
2023/06/20 02:35:02;;;;;;;4.28;3.25;;;;;;;;;;5054843;28;20032;-60
2023/06/20 02:37:32;;;;;;;4.68;3.38;;;;;;;;;;5054856;28;20135;-60
2023/06/20 02:39:58;;;;;;;6.60;4.10;;;;;;;;;;5054798;28;20025;-60
2023/06/20 02:42:24;;;;;;;3.25;2.88;;;;;;;;;;5054706;28;20375;-60
2023/06/20 02:44:50;;;;;;;5.00;3.72;;;;;;;;;;5054755;28;20029;-60
2023/06/20 02:47:22;;;;;;;4.75;3.92;;;;;;;;;;5055221;28;20029;-60
2023/06/20 02:49:58;;;;;;;4.82;3.95;;;;;;;;;;5054435;28;20024;-60
2023/06/20 02:52:37;;;;;;;5.13;3.97;;;;;;;;;;5054623;28;20037;-60
2023/06/20 02:55:10;;;;;;;5.20;4.05;;;;;;;;;;5054831;28;20028;-60
2023/06/20 02:57:38;;;;;;;5.75;3.78;;;;;;;;;;5054793;28;20021;-60
2023/06/20 03:00:09;;;;;;;4.43;3.97;;;;;;;;;;5054332;28;20057;-60
2023/06/20 03:02:35;;;;;;;3.88;3.30;;;;;;;;;;5054855;28;20102;-60
2023/06/20 03:05:03;;;;;;;4.90;3.72;;;;;;;;;;5053872;28;20502;-60
2023/06/20 03:07:33;;;;;;;4.18;3.33;;;;;;;;;;5054798;28;20086;-60
2023/06/20 03:09:59;;;;;;;;;;;;;;;;;;5054507;28;20021;-60
2023/06/20 03:12:25;;;;;;;6.35;3.60;;;;;;;;;;5054295;28;19966;-60
2023/06/20 03:14:51;;;;;;;5.35;3.88;;;;;;;;;;5054126;28;20072;-60
2023/06/20 03:17:17;;;;;;;4.60;3.92;;;;;;;;;;5053969;28;20052;-60
2023/06/20 03:19:43;;;;;;;6.20;3.92;;;;;;;;;;5053736;28;20592;-60
2023/06/20 03:22:09;;;;;;;4.18;3.50;;;;;;;;;;5053723;28;20035;-60
2023/06/20 03:24:35;;;;;;;4.80;4.28;;;;;;;;;;5053930;28;20145;-60
2023/06/20 03:27:01;;;;;;;5.00;3.70;;;;;;;;;;5054512;28;20025;-60
2023/06/20 03:29:27;;;;;;;4.60;3.63;;;;;;;;;;5053907;28;20024;-60
2023/06/20 03:31:53;;;;;;;6.22;4.45;;;;;;;;;;5054209;28;20095;-60
2023/06/20 03:34:19;;;;;;;4.13;3.72;;;;;;;;;;5053658;28;20103;-60
2023/06/20 03:36:45;;;;;;;5.50;4.05;;;;;;;;;;5054154;28;20031;-60
2023/06/20 03:39:11;;;;;;;7.18;3.90;;;;;;;;;;5054162;28;20096;-60
2023/06/20 03:41:37;;;;;;;4.95;4.15;;;;;;;;;;5053998;28;20028;-60
2023/06/20 03:44:03;;;;;;;5.10;4.05;;;;;;;;;;5053449;28;20052;-60
2023/06/20 03:46:29;;;;;;;4.18;3.53;;;;;;;;;;5054420;28;20585;-60
2023/06/20 03:48:55;;;;;;;5.03;4.53;;;;;;;;;;5053779;28;20047;-60
2023/06/20 03:51:21;;;;;;;5.38;3.25;;;;;;;;;;5054056;28;20100;-60
2023/06/20 03:53:47;;;;;;;4.20;3.75;;;;;;;;;;5053515;28;20059;-60
2023/06/20 03:56:13;;;;;;;4.93;3.95;;;;;;;;;;5053460;28;20027;-60
2023/06/20 03:58:39;;;;;;;3.72;3.00;;;;;;;;;;5054206;28;20017;-60
2023/06/20 04:01:06;;;;;;;3.85;3.13;;;;;;;;;;5053619;28;20455;-60
2023/06/20 04:03:32;;;;;;;4.15;3.15;;;;;;;;;;5054008;28;20090;-60
2023/06/20 04:06:01;;;;;;;3.97;3.17;;;;;;;;;;5053616;28;20021;-60
2023/06/20 04:08:27;;;;;;;7.22;3.65;;;;;;;;;;5053225;28;20057;-60
2023/06/20 04:10:53;;;;;;;3.95;3.30;;;;;;;;;;5053202;28;20175;-60
2023/06/20 04:13:19;;;;;;;4.47;3.33;;;;;;;;;;5053574;28;20151;-60
2023/06/20 04:15:45;;;;;;;4.15;3.50;;;;;;;;;;5053869;28;20377;-60
2023/06/20 04:18:11;;;;;;;5.85;3.78;;;;;;;;;;5053196;28;20021;-60
2023/06/20 04:20:37;;;;;;;3.92;3.50;;;;;;;;;;5053483;28;20025;-60
2023/06/20 04:23:03;;;;;;;3.40;3.10;;;;;;;;;;5053364;28;20052;-60
2023/06/20 04:25:29;;;;;;;4.63;3.70;;;;;;;;;;5053312;28;20025;-60
2023/06/20 04:27:55;;;;;;;3.58;3.13;;;;;;;;;;5053749;28;20071;-60
2023/06/20 04:30:22;;;;;;;4.20;3.80;;;;;;;;;;5057916;28;20104;-60
2023/06/20 04:32:48;;;;;;;3.47;3.08;;;;;;;;;;5056949;28;20497;-60
2023/06/20 04:35:14;;;;;;;4.57;3.75;;;;;;;;;;5057157;28;20017;-60
2023/06/20 04:37:40;;;;;;;3.80;3.40;;;;;;;;;;5058024;28;20031;-60
2023/06/20 04:40:08;;;;;;;3.75;3.35;;;;;;;;;;5057330;28;20021;-60
2023/06/20 04:42:34;;;;;;;6.70;3.40;;;;;;;;;;5056951;28;20071;-60
2023/06/20 04:45:00;;;;;;;4.25;3.10;;;;;;;;;;5056944;28;20029;-60
2023/06/20 04:47:26;;;;;;;3.67;2.90;;;;;;;;;;5057225;28;20021;-60
2023/06/20 04:49:52;;;;;;;5.18;4.05;;;;;;;;;;5056955;28;20110;-60
2023/06/20 04:52:18;;;;;;;4.65;3.85;;;;;;;;;;5056592;28;20035;-60
2023/06/20 04:54:44;;;;;;;5.40;3.95;;;;;;;;;;5056836;28;20044;-60
2023/06/20 04:57:10;;;;;;;5.93;3.45;;;;;;;;;;5057201;28;20055;-60
2023/06/20 04:59:36;;;;;;;4.18;3.25;;;;;;;;;;5057069;28;20032;-60
2023/06/20 05:02:05;;;;;;;5.43;3.70;;;;;;;;;;5057129;28;20036;-60
2023/06/20 05:04:31;;;;;;;5.60;3.63;;;;;;;;;;5056912;28;20032;-60
2023/06/20 05:06:56;;;;;;;3.58;3.17;;;;;;;;;;5057117;28;20443;-60
2023/06/20 05:09:23;;;;;;;3.65;3.05;;;;;;;;;;5056453;28;20397;-60
2023/06/20 05:11:49;;;;;;;3.80;3.00;;;;;;;;;;5056592;28;20485;-60
2023/06/20 05:14:15;;;;;;;2.85;2.47;;;;;;;;;;5056297;28;20021;-60
2023/06/20 05:16:41;;;;;;;4.20;3.20;;;;;;;;;;5056674;28;20112;-60
2023/06/20 05:19:07;;;;;;;4.15;3.55;;;;;;;;;;5056700;28;20056;-60
2023/06/20 05:21:32;;;;;;;3.88;3.15;;;;;;;;;;5056277;28;20025;-60
2023/06/20 05:23:58;;;;;;;3.38;2.42;;;;;;;;;;5056310;28;20021;-60
2023/06/20 05:26:24;;;;;;;4.10;3.30;;;;;;;;;;5055988;28;20021;-60
2023/06/20 05:28:51;;;;;;;8.00;3.10;;;;;;;;;;5056233;28;20026;-60
2023/06/20 05:31:17;;;;;;;3.90;3.05;;;;;;;;;;5055688;28;20107;-60
2023/06/20 05:33:43;;;;;;;3.40;2.80;;;;;;;;;;5056199;28;20102;-60
2023/06/20 05:36:09;;;;;;;4.10;2.53;;;;;;;;;;5056500;28;20027;-60
2023/06/20 05:38:36;;;;;;;3.00;2.15;;;;;;;;;;5056308;28;20470;-60
2023/06/20 05:41:02;;;;;;;3.67;2.80;;;;;;;;;;5054639;28;20104;-60
2023/06/20 05:43:29;;;;;;;6.50;2.90;;;;;;;;;;5056012;28;20436;-60
2023/06/20 05:45:55;;;;;;;5.47;3.17;;;;;;;;;;5055770;28;20490;-60
2023/06/20 05:48:24;;;;;;;5.90;2.63;;;;;;;;;;5055863;28;20029;-60
2023/06/20 05:50:51;;;;;;;4.03;2.90;;;;;;;;;;5056303;28;20025;-60
2023/06/20 05:53:17;;;;;;;5.85;3.30;;;;;;;;;;5055706;28;20033;-60
2023/06/20 05:55:43;;;;;;;6.03;3.15;;;;;;;;;;5055753;28;20048;-60
2023/06/20 05:58:09;;;;;;;3.08;2.08;;;;;;;;;;5055654;28;20384;-60
2023/06/20 06:00:35;;;;;;;6.25;3.30;;;;;;;;;;5055182;28;20031;-60
2023/06/20 06:03:01;;;;;;;4.10;2.83;;;;;;;;;;5055383;28;20029;-60
2023/06/20 06:05:27;;;;;;;3.42;2.63;;;;;;;;;;5055182;28;20028;-60
2023/06/20 06:07:53;;;;;;;3.67;2.78;;;;;;;;;;5055302;28;20103;-60
2023/06/20 06:10:19;;;;;;;4.13;2.80;;;;;;;;;;5056007;28;20025;-60
2023/06/20 06:12:45;;;;;;;4.68;2.83;;;;;;;;;;5055387;28;20028;-60
2023/06/20 06:15:13;;;;;;;3.88;2.88;;;;;;;;;;5054959;28;20045;-60
2023/06/20 06:17:39;;;;;;;5.07;3.60;;;;;;;;;;5055422;28;20025;-60
2023/06/20 06:20:09;;;;;;;3.88;2.65;;;;;;;;;;5055315;28;20017;-60
2023/06/20 06:22:35;;;;;;;;;;;;;;;;;;5055605;28;20428;-60
2023/06/20 06:25:01;;;;;;;6.90;2.85;;;;;;;;;;5055414;28;19996;-60
2023/06/20 06:27:27;;;;;;;3.88;3.13;;;;;;;;;;5055290;28;20044;-60
2023/06/20 06:29:53;;;;;;;5.05;3.15;;;;;;;;;;5055076;28;20021;-60
2023/06/20 06:32:20;;;;;;;4.18;3.08;;;;;;;;;;5054644;28;20112;-60
2023/06/20 06:34:46;;;;;;;3.95;2.63;;;;;;;;;;5055000;28;20033;-60
2023/06/20 06:37:13;;;;;;;6.45;3.42;;;;;;;;;;5054906;28;20025;-60
2023/06/20 06:39:38;;;;;;;5.45;3.53;;;;;;;;;;5054737;28;20434;-60
2023/06/20 06:42:05;;;;;;;3.72;2.72;;;;;;;;;;5055089;28;20025;-60
2023/06/20 06:44:31;;;;;;;4.15;3.20;;;;;;;;;;5054855;28;20382;-60
2023/06/20 06:46:57;;;;;;;3.92;2.70;;;;;;;;;;5055341;28;20025;-60
2023/06/20 06:49:23;;;;;;;5.05;3.78;;;;;;;;;;5054696;28;20025;-60
2023/06/20 06:51:49;;;;;;;4.10;3.17;;;;;;;;;;5054255;28;20082;-60
2023/06/20 06:54:15;;;;;;;7.25;3.35;;;;;;;;;;5055166;28;20100;-60
2023/06/20 06:56:41;;;;;;;6.97;4.18;;;;;;;;;;5054511;28;20053;-60
2023/06/20 06:59:07;;;;;;;7.32;3.33;;;;;;;;;;5054960;28;20044;-60
2023/06/20 07:01:33;;;;;;;3.88;2.97;;;;;;;;;;5054867;28;20017;-60
2023/06/20 07:03:59;;;;;;;3.50;2.80;;;;;;;;;;5054339;28;20078;-60
2023/06/20 07:06:25;;;;;;;2.83;2.50;;;;;;;;;;5054663;28;20413;-60
2023/06/20 07:08:52;;;;;;;5.78;4.25;;;;;;;;;;5053975;28;20368;-60
2023/06/20 07:11:18;;;;;;;3.80;2.92;;;;;;;;;;5054752;28;20029;-60
2023/06/20 07:13:44;;;;;;;5.13;2.90;;;;;;;;;;5054427;28;20485;-60
2023/06/20 07:16:10;;;;;;;4.03;3.40;;;;;;;;;;5054016;28;20056;-61
2023/06/20 07:18:36;;;;;;;3.40;2.88;;;;;;;;;;5054739;28;20455;-61
2023/06/20 07:21:05;;;;;;;4.47;3.15;;;;;;;;;;5053961;28;20378;-59
2023/06/20 07:23:33;;;;;;;5.65;2.97;;;;;;;;;;5053829;28;20497;-61
2023/06/20 07:25:58;;;;;;;4.15;3.00;;;;;;;;;;5054555;28;20029;-61
2023/06/20 07:28:26;;;;;;;4.55;3.47;;;;;;;;;;5054030;28;20032;-61
2023/06/20 07:30:52;;;;;;;4.57;3.40;;;;;;;;;;5053923;28;20028;-61
2023/06/20 07:33:18;;;;;;;3.50;3.10;;;;;;;;;;5053939;28;20043;-61
2023/06/20 07:35:44;;;;;;;4.10;2.85;;;;;;;;;;5053611;28;20439;-61
2023/06/20 07:38:09;;;;;;;4.63;2.70;;;;;;;;;;5054386;28;20451;-61
2023/06/20 07:40:35;;;;;;;3.28;2.58;;;;;;;;;;5053670;28;20029;-61
2023/06/20 07:43:01;;;;;;;8.35;3.22;;;;;;;;;;5053684;28;20025;-61
2023/06/20 07:45:27;;;;;;;4.43;3.33;;;;;;;;;;5054046;28;20036;-61
2023/06/20 07:47:53;;;;;;;3.47;2.65;;;;;;;;;;5054280;28;20060;-60
2023/06/20 07:50:19;;;;;;;5.78;3.38;;;;;;;;;;5053973;28;20073;-60
2023/06/20 07:52:45;;;;;;;3.67;3.20;;;;;;;;;;5053967;28;20032;-60
2023/06/20 07:55:11;;;;;;;4.78;3.22;;;;;;;;;;5053929;28;20029;-60
2023/06/20 07:57:37;;;;;;;4.78;3.55;;;;;;;;;;5054484;28;20066;-60
2023/06/20 08:00:07;;;;;;;4.53;3.13;;;;;;;;;;5053608;28;20025;-61
2023/06/20 08:02:33;;;;;;;;;;;;;;;;;;5054497;28;20082;-60
2023/06/20 08:04:59;;;;;;;4.68;3.50;;;;;;;;;;5057303;28;19912;-61
2023/06/20 08:07:25;;;;;;;5.45;3.70;;;;;;;;;;5057999;28;20017;-61
2023/06/20 08:09:51;;;;;;;7.07;3.58;;;;;;;;;;5057726;28;20028;-61
2023/06/20 08:12:17;;;;;;;3.70;2.85;;;;;;;;;;5058238;28;20028;-62
2023/06/20 08:14:43;;;;;;;8.02;3.47;;;;;;;;;;5057473;28;20060;-61
2023/06/20 08:17:09;;;;;;;4.13;3.42;;;;;;;;;;5057865;28;20096;-61
2023/06/20 08:19:35;;;;;;;8.77;3.60;;;;;;;;;;5058076;28;20057;-60
2023/06/20 08:22:01;;;;;;;4.18;3.20;;;;;;;;;;5057424;28;20028;-62
2023/06/20 08:24:27;;;;;;;3.97;3.20;;;;;;;;;;5057533;28;20056;-61
2023/06/20 08:26:53;;;;;;;4.47;3.80;;;;;;;;;;5056962;28;20047;-61
2023/06/20 08:29:19;;;;;;;6.72;3.92;;;;;;;;;;5057650;28;20104;-61
2023/06/20 08:31:46;;;;;;;3.97;2.65;;;;;;;;;;5057029;28;20033;-60
2023/06/20 08:34:12;;;;;;;3.65;3.20;;;;;;;;;;5056906;28;20037;-61
2023/06/20 08:36:38;;;;;;;4.68;4.18;;;;;;;;;;5057798;28;20074;-60
2023/06/20 08:39:04;;;;;;;4.45;3.67;;;;;;;;;;5057152;28;20020;-61
2023/06/20 08:41:30;;;;;;;4.97;3.78;;;;;;;;;;5057357;28;20025;-61
2023/06/20 08:43:56;;;;;;;5.47;3.75;;;;;;;;;;5057698;28;20367;-61
2023/06/20 08:46:24;;;;;;;4.78;3.35;;;;;;;;;;5057462;28;20096;-60
2023/06/20 08:48:50;;;;;;;6.00;3.38;;;;;;;;;;5057511;28;20033;-61
2023/06/20 08:51:16;;;;;;;6.57;4.05;;;;;;;;;;5057838;28;20343;-60
2023/06/20 08:53:46;;;;;;;7.68;3.38;;;;;;;;;;5056939;28;20017;-61
2023/06/20 08:56:13;;;;;;;4.65;3.67;;;;;;;;;;5057544;28;20096;-61
2023/06/20 08:58:39;;;;;;;10.10;4.20;;;;;;;;;;5056754;28;20036;-60
2023/06/20 09:01:07;;;;;;;4.45;3.72;;;;;;;;;;5056785;28;20017;-61
2023/06/20 09:03:33;;;;;;;3.90;3.03;;;;;;;;;;5057456;28;20044;-61
2023/06/20 09:05:59;;;;;;;4.18;3.38;;;;;;;;;;5057012;28;20088;-61
2023/06/20 09:08:33;;;;;;;4.65;3.53;;;;;;;;;;5056595;28;20056;-61
2023/06/20 09:11:06;;;;;;;4.68;3.28;;;;;;;;;;5057206;28;20029;-61
2023/06/20 09:13:32;;;;;;;4.50;3.58;;;;;;;;;;5056569;28;20025;-61
2023/06/20 09:16:06;;;;;;;5.38;4.13;;;;;;;;;;5056329;28;20073;-60
2023/06/20 09:18:34;;;;;;;6.68;4.00;;;;;;;;;;5056947;28;20363;-60
2023/06/20 09:21:00;;;;;;;5.13;3.72;;;;;;;;;;5056886;28;20452;-60
2023/06/20 09:23:28;;;;;;;6.13;4.03;;;;;;;;;;5056261;28;20072;-61
2023/06/20 09:25:54;;;;;;;5.03;4.15;;;;;;;;;;5056313;28;20036;-61
2023/06/20 09:28:19;;;;;;;7.25;4.20;;;;;;;;;;5056284;28;20025;-61
2023/06/20 09:30:48;;;;;;;6.32;4.18;;;;;;;;;;5056214;28;20160;-61
2023/06/20 09:33:14;;;;;;;6.07;4.38;;;;;;;;;;5056389;28;20029;-61
2023/06/20 09:35:40;;;;;;;5.35;3.63;;;;;;;;;;5055881;28;20482;-61
2023/06/20 09:38:06;;;;;;;4.53;3.70;;;;;;;;;;5056191;28;20100;-61
2023/06/20 09:40:41;;;;;;;5.25;4.32;;;;;;;;;;5056293;28;20024;-61
2023/06/20 09:43:07;;;;;;;5.38;3.60;;;;;;;;;;5056390;28;20028;-61
2023/06/20 09:45:33;;;;;;;4.68;4.10;;;;;;;;;;5055832;28;20033;-61
2023/06/20 09:47:59;;;;;;;4.60;3.30;;;;;;;;;;5056287;28;20029;-61
2023/06/20 09:50:26;;;;;;;7.97;4.15;;;;;;;;;;5055879;28;20029;-61
2023/06/20 09:52:59;;;;;;;5.60;3.33;;;;;;;;;;5056090;28;20033;-61
2023/06/20 09:55:25;;;;;;;4.82;3.78;;;;;;;;;;5055837;28;20348;-61
2023/06/20 09:57:53;;;;;;;5.13;3.75;;;;;;;;;;5056336;28;20024;-61
2023/06/20 10:00:22;;;;;;;5.97;3.38;;;;;;;;;;5056008;28;20387;-61
2023/06/20 10:02:48;;;;;;;6.43;3.50;;;;;;;;;;5055290;28;20021;-61
2023/06/20 10:05:15;;;;;;;4.10;3.40;;;;;;;;;;5055507;28;20059;-61
2023/06/20 10:07:42;;;;;;;6.22;3.67;;;;;;;;;;5055757;28;20025;-61
2023/06/20 10:10:08;;;;;;;6.63;4.20;;;;;;;;;;5055442;28;20036;-61
2023/06/20 10:12:34;;;;;;;8.57;3.42;;;;;;;;;;5055292;28;20082;-61
2023/06/20 10:15:01;;;;;;;5.72;3.58;;;;;;;;;;5055318;28;20056;-61
2023/06/20 10:17:31;;;;;;;5.50;3.92;;;;;;;;;;5055250;28;20021;-61
2023/06/20 10:19:59;;;;;;;8.93;4.05;;;;;;;;;;5055283;28;20028;-61
2023/06/20 10:22:37;;;;;;;4.13;3.05;;;;;;;;;;5055683;28;20402;-61
2023/06/20 10:25:14;;;;;;;6.25;3.20;;;;;;;;;;5054990;28;20056;-61
2023/06/20 10:27:41;;;;;;;7.45;3.72;;;;;;;;;;5054992;28;20040;-61
2023/06/20 10:30:08;;;;;;;4.85;3.67;;;;;;;;;;5055652;28;20025;-61
2023/06/20 10:32:34;;;;;;;4.80;3.25;;;;;;;;;;5054680;28;20027;-61
2023/06/20 10:35:09;;;;;;;3.97;3.03;;;;;;;;;;5055029;28;20112;-61
2023/06/20 10:37:37;;;;;;;4.35;2.60;;;;;;;;;;5055437;28;20365;-61
2023/06/20 10:40:09;;;;;;;4.18;3.53;;;;;;;;;;5055080;28;20459;-60
2023/06/20 10:42:41;;;;;;;5.45;3.70;;;;;;;;;;5054774;28;20117;-60
2023/06/20 10:45:18;;;;;;;5.50;3.45;;;;;;;;;;5055166;28;20405;-61
2023/06/20 10:47:44;;;;;;;6.10;2.92;;;;;;;;;;5055224;28;20021;-61
2023/06/20 10:50:10;;;;;;;5.45;3.58;;;;;;;;;;5054772;28;20033;-61
2023/06/20 10:52:37;;;;;;;4.32;3.28;;;;;;;;;;5054700;28;20099;-61
2023/06/20 10:55:04;;;;;;;3.45;3.15;;;;;;;;;;5055091;28;20079;-61
2023/06/20 10:57:30;;;;;;;3.53;3.22;;;;;;;;;;5055226;28;20028;-61
2023/06/20 10:59:56;;;;;;;5.47;3.67;;;;;;;;;;5055070;28;20021;-61
2023/06/20 11:02:22;;;;;;;3.72;3.13;;;;;;;;;;5054442;28;20039;-61
2023/06/20 11:04:48;;;;;;;5.32;3.63;;;;;;;;;;5054513;28;20029;-61
2023/06/20 11:07:14;;;;;;;4.13;3.25;;;;;;;;;;5054506;28;20408;-61
2023/06/20 11:09:40;;;;;;;4.45;3.65;;;;;;;;;;5054262;28;20107;-61
2023/06/20 11:12:09;;;;;;;4.90;3.25;;;;;;;;;;5054548;28;20425;-61
2023/06/20 11:14:36;;;;;;;3.90;3.25;;;;;;;;;;5054286;28;20091;-61
2023/06/20 11:17:02;;;;;;;3.97;3.58;;;;;;;;;;5054250;28;20112;-61
2023/06/20 11:19:28;;;;;;;3.40;2.58;;;;;;;;;;5054517;28;20052;-61
2023/06/20 11:21:55;;;;;;;6.38;3.85;;;;;;;;;;5054279;28;20071;-60
2023/06/20 11:24:21;;;;;;;9.10;3.65;;;;;;;;;;5054875;28;20451;-61
2023/06/20 11:26:47;;;;;;;4.93;3.60;;;;;;;;;;5054141;28;20107;-61
2023/06/20 11:29:13;;;;;;;3.28;2.53;;;;;;;;;;5054576;28;20052;-61
2023/06/20 11:31:39;;;;;;;4.80;3.55;;;;;;;;;;5054031;28;20028;-61
2023/06/20 11:34:06;;;;;;;6.20;3.03;;;;;;;;;;5053885;28;20051;-61
2023/06/20 11:36:33;;;;;;;5.85;3.05;;;;;;;;;;5054466;28;20024;-61
2023/06/20 11:38:59;;;;;;;4.53;4.05;;;;;;;;;;5054491;28;20024;-61
2023/06/20 11:41:32;;;;;;;4.07;3.45;;;;;;;;;;5053827;28;20025;-61
2023/06/20 11:43:58;;;;;;;4.80;3.47;;;;;;;;;;5053826;28;20029;-61
2023/06/20 11:46:25;;;;;;;3.47;3.17;;;;;;;;;;5054171;28;20082;-60
2023/06/20 11:48:51;;;;;;;4.10;3.70;;;;;;;;;;5053689;28;20025;-61
2023/06/20 11:51:19;;;;;;;5.40;3.70;;;;;;;;;;5054524;28;20041;-61
2023/06/20 11:53:45;;;;;;;6.18;3.38;;;;;;;;;;5054250;28;20071;-61
2023/06/20 11:56:12;;;;;;;4.80;3.72;;;;;;;;;;5053999;28;20036;-61
2023/06/20 11:58:39;;;;;;;5.55;4.15;;;;;;;;;;5054028;28;20017;-61
2023/06/20 12:01:09;;;;;;;3.83;3.42;;;;;;;;;;5053520;28;20547;-61
2023/06/20 12:03:36;;;;;;;4.93;3.65;;;;;;;;;;5053540;28;20375;-61
2023/06/20 12:06:02;;;;;;;4.55;3.25;;;;;;;;;;5053513;28;20090;-61
2023/06/20 12:08:34;;;;;;;4.60;3.70;;;;;;;;;;5053857;28;20021;-61
2023/06/20 12:11:01;;;;;;;4.20;3.75;;;;;;;;;;5053534;28;20026;-61
2023/06/20 12:13:27;;;;;;;5.32;3.28;;;;;;;;;;5053519;28;20116;-60
2023/06/20 12:15:53;;;;;;;6.20;3.47;;;;;;;;;;5053351;28;20049;-60
2023/06/20 12:18:19;;;;;;;5.45;3.95;;;;;;;;;;5053916;28;20025;-60
2023/06/20 12:20:45;;;;;;;4.82;3.88;;;;;;;;;;5053763;28;20374;-60
2023/06/20 12:23:14;;;;;;;5.43;3.80;;;;;;;;;;5053362;28;20068;-60
2023/06/20 12:25:41;;;;;;;6.28;3.88;;;;;;;;;;5053464;28;20025;-60
2023/06/20 12:28:07;;;;;;;7.35;3.95;;;;;;;;;;5054152;28;20363;-60
2023/06/20 12:30:33;;;;;;;5.00;3.60;;;;;;;;;;5053851;28;20347;-60
2023/06/20 12:32:59;;;;;;;6.63;3.58;;;;;;;;;;5053183;28;20021;-60
2023/06/20 12:35:26;;;;;;;3.78;3.38;;;;;;;;;;5052986;28;20352;-60
2023/06/20 12:37:52;;;;;;;5.40;3.67;;;;;;;;;;5053582;28;20017;-60
2023/06/20 12:40:18;;;;;;;4.50;3.42;;;;;;;;;;5053506;28;20036;-61
2023/06/20 12:42:44;;;;;;;4.13;3.47;;;;;;;;;;5052976;28;20032;-60
2023/06/20 12:45:10;;;;;;;6.72;3.70;;;;;;;;;;5053755;28;20362;-60
2023/06/20 12:47:38;;;;;;;5.03;3.63;;;;;;;;;;5054028;28;20017;-60
2023/06/20 12:50:04;;;;;;;5.53;3.75;;;;;;;;;;5055348;28;20025;-60
2023/06/20 12:52:31;;;;;;;9.77;3.63;;;;;;;;;;5057130;28;20033;-61
2023/06/20 12:54:58;;;;;;;4.40;3.67;;;;;;;;;;5056559;28;20463;-61
2023/06/20 12:57:25;;;;;;;7.00;3.35;;;;;;;;;;5057702;28;20090;-61
2023/06/20 12:59:52;;;;;;;5.78;3.60;;;;;;;;;;5056730;28;20493;-61
2023/06/20 13:02:19;;;;;;;5.78;3.70;;;;;;;;;;5056666;28;20375;-61
2023/06/20 13:04:45;;;;;;;5.60;3.65;;;;;;;;;;5057209;28;20055;-60
2023/06/20 13:07:11;;;;;;;4.70;3.78;;;;;;;;;;5057274;28;20024;-62
2023/06/20 13:09:38;;;;;;;4.63;3.85;;;;;;;;;;5056482;28;20034;-60
2023/06/20 13:12:05;;;;;;;4.43;3.35;;;;;;;;;;5056403;28;20029;-61
2023/06/20 13:14:31;;;;;;;5.95;4.00;;;;;;;;;;5056390;28;20021;-61
2023/06/20 13:16:58;;;;;;;6.53;3.70;;;;;;;;;;5056765;28;20029;-61
2023/06/20 13:19:24;;;;;;;6.95;4.05;;;;;;;;;;5056356;28;20370;-61
2023/06/20 13:21:50;;;;;;;5.22;3.83;;;;;;;;;;5056333;28;20502;-61
2023/06/20 13:24:16;;;;;;;8.90;3.90;;;;;;;;;;5056838;28;20060;-61
2023/06/20 13:26:42;;;;;;;5.68;3.55;;;;;;;;;;5056254;28;20021;-61
2023/06/20 13:29:08;;;;;;;7.20;3.95;;;;;;;;;;5056503;28;20078;-61
2023/06/20 13:31:34;;;;;;;8.23;4.43;;;;;;;;;;5056238;28;20100;-61
2023/06/20 13:34:00;;;;;;;5.82;3.78;;;;;;;;;;5056157;28;20034;-61
2023/06/20 13:36:29;;;;;;;6.03;3.28;;;;;;;;;;5056683;28;20029;-61
2023/06/20 13:38:55;;;;;;;6.53;4.18;;;;;;;;;;5056025;28;20223;-61
2023/06/20 13:41:21;;;;;;;4.35;3.70;;;;;;;;;;5055586;28;20132;-61
2023/06/20 13:43:47;;;;;;;8.18;4.03;;;;;;;;;;5056487;28;20025;-61
2023/06/20 13:46:13;;;;;;;4.10;3.65;;;;;;;;;;5056802;28;20084;-61
2023/06/20 13:48:39;;;;;;;4.53;3.40;;;;;;;;;;5056184;28;20474;-61
2023/06/20 13:51:05;;;;;;;7.38;4.78;;;;;;;;;;5055806;28;20363;-61
2023/06/20 13:53:31;;;;;;;8.05;4.22;;;;;;;;;;5056330;28;20482;-61
2023/06/20 13:55:56;;;;;;;7.00;3.92;;;;;;;;;;5056013;28;20036;-61
2023/06/20 13:58:22;;;;;;;5.28;3.78;;;;;;;;;;5056173;28;20444;-61
2023/06/20 14:00:50;;;;;;;5.18;4.10;;;;;;;;;;5054758;28;20024;-61
2023/06/20 14:03:16;;;;;;;6.50;4.57;;;;;;;;;;5055688;28;20405;-61
2023/06/20 14:05:42;;;;;;;4.70;3.63;;;;;;;;;;5055490;28;20028;-61
2023/06/20 14:08:08;;;;;;;5.32;3.55;;;;;;;;;;5055469;28;20025;-61
2023/06/20 14:10:34;;;;;;;6.97;3.33;;;;;;;;;;5055433;28;20025;-61
2023/06/20 14:13:00;;;;;;;4.25;3.40;;;;;;;;;;5055515;28;20024;-61
2023/06/20 14:15:26;;;;;;;7.38;4.07;;;;;;;;;;5055242;28;20057;-61
2023/06/20 14:17:55;;;;;;;8.85;4.53;;;;;;;;;;5055362;28;20347;-61
2023/06/20 14:20:20;;;;;;;4.70;3.72;;;;;;;;;;5055207;28;20021;-61
2023/06/20 14:22:46;;;;;;;7.30;4.40;;;;;;;;;;5055023;28;20032;-61
2023/06/20 14:25:12;;;;;;;4.60;3.92;;;;;;;;;;5055061;28;20021;-61
2023/06/20 14:27:39;;;;;;;5.97;4.13;;;;;;;;;;5055721;28;20129;-61
2023/06/20 14:30:07;;;;;;;7.10;4.15;;;;;;;;;;5054799;28;20060;-61
2023/06/20 14:32:33;;;;;;;7.47;4.10;;;;;;;;;;5055163;28;20049;-61
2023/06/20 14:34:59;;;;;;;6.05;3.83;;;;;;;;;;5054988;28;20065;-61
2023/06/20 14:37:25;;;;;;;4.15;3.08;;;;;;;;;;5055226;28;20028;-61
2023/06/20 14:39:54;;;;;;;7.43;4.15;;;;;;;;;;5054962;28;20024;-61
2023/06/20 14:42:20;;;;;;;6.30;3.60;;;;;;;;;;5055539;28;20036;-61